Time;durP1;ratioP1;P1;durP2;ratioP2;P2;SDS_P1;SDS_P2;PMS_P1;PMS_P2;Temp;Humidity;BMP_temperature;BMP_pressure;BME280_temperature;BME280_humidity;BME280_pressure;Samples;Min_cycle;Max_cycle;Signal;HPM_P1;HPM_P2
2023/08/09 00:00:43;;;;;;;0.00;0.00;;;13.30;99.90;;;;;;5038140;28;20095;-71
2023/08/09 00:03:08;;;;;;;0.00;0.00;;;13.20;99.90;;;;;;5036518;28;20046;-70
2023/08/09 00:05:34;;;;;;;0.00;0.00;;;13.20;99.90;;;;;;5038149;28;20053;-71
2023/08/09 00:08:00;;;;;;;0.00;0.00;;;13.10;99.90;;;;;;5044430;28;20053;-71
2023/08/09 00:10:26;;;;;;;0.10;0.10;;;13.20;99.90;;;;;;5036643;28;21161;-72
2023/08/09 00:12:52;;;;;;;0.08;0.08;;;13.10;99.90;;;;;;5029716;28;20045;-71
2023/08/09 00:15:18;;;;;;;0.10;0.10;;;12.90;99.90;;;;;;5041195;28;20051;-71
2023/08/09 00:17:44;;;;;;;0.30;0.28;;;12.80;99.90;;;;;;5039470;28;20045;-73
2023/08/09 00:20:11;;;;;;;0.15;0.15;;;12.80;99.90;;;;;;5049117;28;20045;-73
2023/08/09 00:22:38;;;;;;;0.00;0.00;;;12.80;99.90;;;;;;5042035;28;20054;-72
2023/08/09 00:25:04;;;;;;;0.05;0.05;;;12.80;99.90;;;;;;5043204;28;20041;-72
2023/08/09 00:27:30;;;;;;;0.10;0.10;;;12.70;99.90;;;;;;5031636;28;20439;-73
2023/08/09 00:29:55;;;;;;;0.00;0.00;;;12.80;99.90;;;;;;5037621;28;20044;-73
2023/08/09 00:32:21;;;;;;;0.00;0.00;;;12.60;99.90;;;;;;5042141;28;20075;-73
2023/08/09 00:34:47;;;;;;;0.20;0.20;;;12.60;99.90;;;;;;5042896;28;20041;-73
2023/08/09 00:37:13;;;;;;;0.65;0.52;;;12.60;99.90;;;;;;5046945;28;20515;-73
2023/08/09 00:39:38;;;;;;;0.10;0.10;;;12.50;99.90;;;;;;5046566;28;20037;-73
2023/08/09 00:42:04;;;;;;;0.00;0.00;;;12.50;99.90;;;;;;5037472;28;20049;-73
2023/08/09 00:44:30;;;;;;;0.00;0.00;;;12.50;99.90;;;;;;5046761;28;20033;-72
2023/08/09 00:46:56;;;;;;;0.00;0.00;;;12.50;99.90;;;;;;5048518;28;20401;-73
2023/08/09 00:49:21;;;;;;;0.00;0.00;;;12.40;99.90;;;;;;5039726;28;20040;-73
2023/08/09 00:51:49;;;;;;;0.00;0.00;;;12.30;99.90;;;;;;5042375;28;20041;-73
2023/08/09 00:54:15;;;;;;;6.07;0.82;;;12.30;99.90;;;;;;5034956;28;20049;-72
2023/08/09 00:56:43;;;;;;;0.08;0.08;;;12.30;99.90;;;;;;5041975;28;20086;-73
2023/08/09 00:59:09;;;;;;;0.00;0.00;;;12.30;99.90;;;;;;5042237;28;20060;-72
2023/08/09 01:01:34;;;;;;;0.03;0.03;;;12.30;99.90;;;;;;5040107;28;20060;-73
2023/08/09 01:04:01;;;;;;;2.40;0.40;;;12.20;99.90;;;;;;5037966;28;20180;-73
2023/08/09 01:06:55;;;;;;;0.10;0.10;;;12.30;99.90;;;;;;5041715;28;20425;-73
2023/08/09 01:09:40;;;;;;;1.50;1.35;;;12.30;99.90;;;;;;5035728;28;20378;-73
2023/08/09 01:12:10;;;;;;;0.00;0.00;;;12.20;99.90;;;;;;5041015;28;20048;-73
2023/08/09 01:14:40;;;;;;;0.10;0.10;;;12.20;99.90;;;;;;5036517;28;20048;-72
2023/08/09 01:17:09;;;;;;;0.00;0.00;;;12.20;99.90;;;;;;5027496;28;20468;-73
2023/08/09 01:19:41;;;;;;;0.00;0.00;;;12.20;99.90;;;;;;5039810;28;20052;-72
2023/08/09 01:22:17;;;;;;;0.00;0.00;;;12.10;99.90;;;;;;5048784;28;20055;-72
2023/08/09 01:24:44;;;;;;;0.00;0.00;;;12.10;99.90;;;;;;5048057;28;20041;-73
2023/08/09 01:27:10;;;;;;;0.00;0.00;;;12.10;99.90;;;;;;5038152;28;20041;-72
2023/08/09 01:29:37;;;;;;;2.50;1.17;;;12.10;99.90;;;;;;5037616;28;20052;-73
2023/08/09 01:32:03;;;;;;;0.22;0.22;;;12.10;99.90;;;;;;5047301;28;20044;-73
2023/08/09 01:34:30;;;;;;;0.10;0.10;;;12.00;99.90;;;;;;5039796;28;20556;-72
2023/08/09 01:37:02;;;;;;;0.00;0.00;;;12.00;99.90;;;;;;5041030;28;20040;-72
2023/08/09 01:39:32;;;;;;;0.00;0.00;;;11.90;99.90;;;;;;5037154;28;21799;-72
2023/08/09 01:41:58;;;;;;;0.00;0.00;;;11.90;99.90;;;;;;5040703;28;20045;-73
2023/08/09 01:44:25;;;;;;;0.10;0.10;;;12.00;99.90;;;;;;5041364;28;20095;-72
2023/08/09 01:46:51;;;;;;;0.13;0.13;;;12.00;99.90;;;;;;5036389;28;20122;-73
2023/08/09 01:49:22;;;;;;;0.00;0.00;;;11.90;99.90;;;;;;5043806;28;20067;-73
2023/08/09 01:51:48;;;;;;;0.00;0.00;;;12.00;99.90;;;;;;5044913;28;20064;-73
2023/08/09 01:54:14;;;;;;;0.30;0.30;;;11.90;99.90;;;;;;5024143;28;20434;-73
2023/08/09 01:56:40;;;;;;;0.10;0.10;;;11.90;99.90;;;;;;5039609;28;20076;-72
2023/08/09 01:59:08;;;;;;;0.22;0.22;;;11.90;99.90;;;;;;5030143;28;20053;-72
2023/08/09 02:01:38;;;;;;;0.10;0.10;;;11.80;99.90;;;;;;5041565;28;20580;-73
2023/08/09 02:04:04;;;;;;;0.00;0.00;;;11.80;99.90;;;;;;5042549;28;20049;-73
2023/08/09 02:06:32;;;;;;;0.10;0.10;;;11.80;99.90;;;;;;5043032;28;20075;-72
2023/08/09 02:08:58;;;;;;;0.00;0.00;;;11.80;99.90;;;;;;5041281;28;20132;-72
2023/08/09 02:11:24;;;;;;;0.00;0.00;;;11.80;99.90;;;;;;5043507;28;20420;-73
2023/08/09 02:13:50;;;;;;;0.00;0.00;;;11.90;99.90;;;;;;5041706;28;20048;-73
2023/08/09 02:16:15;;;;;;;0.00;0.00;;;11.90;99.90;;;;;;5037049;28;20465;-72
2023/08/09 02:18:42;;;;;;;0.00;0.00;;;11.90;99.90;;;;;;5037540;28;20036;-72
2023/08/09 02:21:07;;;;;;;0.10;0.10;;;11.90;99.90;;;;;;5037444;28;20045;-73
2023/08/09 02:23:33;;;;;;;0.00;0.00;;;11.90;99.90;;;;;;5036732;28;20404;-72
2023/08/09 02:25:59;;;;;;;0.10;0.10;;;11.80;99.90;;;;;;5040264;28;20065;-73
2023/08/09 02:28:24;;;;;;;0.00;0.00;;;11.80;99.90;;;;;;5022693;28;20051;-72
2023/08/09 02:30:50;;;;;;;0.00;0.00;;;11.80;99.90;;;;;;5030467;28;20446;-73
2023/08/09 02:33:16;;;;;;;0.10;0.10;;;11.70;99.90;;;;;;5038892;28;20393;-72
2023/08/09 02:36:11;;;;;;;0.47;0.47;;;11.70;99.90;;;;;;5039003;28;20398;-73
2023/08/09 02:38:37;;;;;;;0.35;0.35;;;11.70;99.90;;;;;;5021187;28;20061;-72
2023/08/09 02:41:06;;;;;;;0.10;0.10;;;11.60;99.90;;;;;;5043794;28;20465;-73
2023/08/09 02:43:31;;;;;;;0.10;0.10;;;11.70;99.90;;;;;;5044457;28;20397;-72
2023/08/09 02:45:57;;;;;;;0.17;0.17;;;11.70;99.90;;;;;;5037161;28;20044;-72
2023/08/09 02:48:24;;;;;;;0.10;0.10;;;11.70;99.90;;;;;;5041558;28;20040;-73
2023/08/09 02:50:50;;;;;;;0.00;0.00;;;11.80;99.90;;;;;;5045153;28;20421;-72
2023/08/09 02:53:17;;;;;;;0.10;0.10;;;11.70;99.90;;;;;;5041929;28;20053;-73
2023/08/09 02:55:43;;;;;;;0.03;0.03;;;11.70;99.90;;;;;;5038811;28;20050;-73
2023/08/09 02:58:09;;;;;;;0.30;0.30;;;11.60;99.90;;;;;;5048658;28;20092;-72
2023/08/09 03:00:36;;;;;;;0.20;0.20;;;11.60;99.90;;;;;;5045212;28;20044;-72
2023/08/09 03:03:05;;;;;;;0.13;0.13;;;11.60;99.90;;;;;;5029603;28;20044;-72
2023/08/09 03:05:31;;;;;;;0.10;0.10;;;11.60;99.90;;;;;;5044414;28;20544;-72
2023/08/09 03:07:57;;;;;;;0.00;0.00;;;11.60;99.90;;;;;;5026475;28;20081;-73
2023/08/09 03:10:23;;;;;;;0.03;0.03;;;11.50;99.90;;;;;;5026867;28;20049;-73
2023/08/09 03:12:49;;;;;;;0.05;0.05;;;11.50;99.90;;;;;;5042658;28;20505;-73
2023/08/09 03:15:15;;;;;;;0.05;0.05;;;11.60;99.90;;;;;;5040975;28;20044;-73
2023/08/09 03:17:41;;;;;;;0.00;0.00;;;11.50;99.90;;;;;;5045306;28;20037;-72
2023/08/09 03:20:14;;;;;;;0.00;0.00;;;11.50;99.90;;;;;;5048201;28;20063;-72
2023/08/09 03:22:43;;;;;;;0.05;0.05;;;11.50;99.90;;;;;;5041750;28;20480;-72
2023/08/09 03:25:10;;;;;;;0.22;0.22;;;11.40;99.90;;;;;;5045717;28;20061;-72
2023/08/09 03:27:36;;;;;;;0.10;0.10;;;11.40;99.90;;;;;;5041247;28;20047;-73
2023/08/09 03:30:04;;;;;;;0.00;0.00;;;11.40;99.90;;;;;;5042144;28;20133;-72
2023/08/09 03:32:30;;;;;;;0.00;0.00;;;11.40;99.90;;;;;;5033727;28;20093;-73
2023/08/09 03:34:55;;;;;;;0.00;0.00;;;11.40;99.90;;;;;;5043092;28;20044;-72
2023/08/09 03:37:21;;;;;;;0.00;0.00;;;11.50;99.90;;;;;;5046249;28;20041;-72
2023/08/09 03:39:46;;;;;;;0.00;0.00;;;11.50;99.90;;;;;;5034465;28;20472;-72
2023/08/09 03:42:12;;;;;;;0.00;0.00;;;11.50;99.90;;;;;;5044978;28;20111;-73
2023/08/09 03:44:38;;;;;;;0.17;0.17;;;11.50;99.90;;;;;;5043677;28;20513;-72
2023/08/09 03:47:03;;;;;;;0.05;0.05;;;11.60;99.90;;;;;;5044222;28;20033;-72
2023/08/09 03:49:29;;;;;;;0.10;0.10;;;11.50;99.90;;;;;;5026325;28;20119;-72
2023/08/09 03:51:55;;;;;;;0.10;0.10;;;11.50;99.90;;;;;;5038718;28;20501;-72
2023/08/09 03:54:20;;;;;;;0.00;0.00;;;11.50;99.90;;;;;;5042409;28;20094;-72
2023/08/09 03:56:46;;;;;;;0.00;0.00;;;11.50;99.90;;;;;;5041653;28;20041;-73
2023/08/09 03:59:11;;;;;;;0.10;0.10;;;11.50;99.90;;;;;;5042165;28;20122;-73
2023/08/09 04:01:37;;;;;;;0.00;0.00;;;11.40;99.90;;;;;;5039709;28;20042;-73
2023/08/09 04:04:03;;;;;;;0.22;0.22;;;11.40;99.90;;;;;;5037113;28;20041;-72
2023/08/09 04:06:29;;;;;;;0.00;0.00;;;11.40;99.90;;;;;;5040633;28;20036;-72
2023/08/09 04:08:55;;;;;;;0.00;0.00;;;11.30;99.90;;;;;;5044070;28;20409;-72
2023/08/09 04:11:20;;;;;;;0.00;0.00;;;11.30;99.90;;;;;;5042706;28;20179;-72
2023/08/09 04:13:46;;;;;;;0.00;0.00;;;11.30;99.90;;;;;;5037848;28;20041;-72
2023/08/09 04:16:12;;;;;;;0.00;0.00;;;11.30;99.90;;;;;;5041690;28;20041;-73
2023/08/09 04:18:37;;;;;;;0.00;0.00;;;11.40;99.90;;;;;;5016568;28;20408;-72
2023/08/09 04:21:03;;;;;;;0.10;0.10;;;11.30;99.90;;;;;;5043400;28;20468;-72
2023/08/09 04:23:29;;;;;;;0.10;0.10;;;11.40;99.90;;;;;;5044433;28;20072;-72
2023/08/09 04:25:57;;;;;;;0.10;0.10;;;11.50;99.90;;;;;;5023863;28;20105;-72
2023/08/09 04:28:23;;;;;;;0.10;0.10;;;11.60;99.90;;;;;;5046297;28;20377;-72
2023/08/09 04:30:48;;;;;;;0.00;0.00;;;11.70;99.90;;;;;;5049391;28;20044;-72
2023/08/09 04:33:14;;;;;;;0.10;0.10;;;11.80;99.90;;;;;;5033802;28;20045;-74
2023/08/09 04:35:42;;;;;;;0.10;0.10;;;11.90;99.90;;;;;;5041991;28;20804;-71
2023/08/09 04:38:07;;;;;;;0.05;0.05;;;11.80;99.90;;;;;;5036515;28;20495;-71
2023/08/09 04:40:36;;;;;;;0.00;0.00;;;11.90;99.90;;;;;;5044603;28;20033;-71
2023/08/09 04:43:03;;;;;;;0.10;0.10;;;12.00;99.90;;;;;;5043221;28;20045;-71
2023/08/09 04:45:29;;;;;;;0.00;0.00;;;12.00;99.90;;;;;;5033661;28;20045;-71
2023/08/09 04:47:56;;;;;;;0.10;0.10;;;12.00;99.90;;;;;;5042167;28;20148;-71
2023/08/09 04:50:23;;;;;;;0.10;0.10;;;12.00;99.90;;;;;;5039089;28;20495;-71
2023/08/09 04:52:49;;;;;;;0.10;0.10;;;12.00;99.90;;;;;;5018507;28;20594;-71
2023/08/09 04:55:15;;;;;;;0.00;0.00;;;12.10;99.90;;;;;;5037957;28;20037;-71
2023/08/09 04:57:41;;;;;;;0.03;0.03;;;12.20;99.90;;;;;;5035235;28;20056;-71
2023/08/09 05:00:13;;;;;;;0.57;0.57;;;12.10;99.90;;;;;;5042482;28;20130;-71
2023/08/09 05:02:40;;;;;;;0.00;0.00;;;12.20;99.90;;;;;;5045089;28;20087;-71
2023/08/09 05:05:09;;;;;;;0.00;0.00;;;12.20;99.90;;;;;;5049829;28;20074;-71
2023/08/09 05:07:36;;;;;;;0.00;0.00;;;12.20;99.90;;;;;;5018083;28;20053;-71
2023/08/09 05:10:02;;;;;;;0.00;0.00;;;12.20;99.90;;;;;;5031610;28;20038;-71
2023/08/09 05:12:28;;;;;;;0.10;0.10;;;12.20;99.90;;;;;;5045195;28;20041;-71
2023/08/09 05:14:54;;;;;;;0.00;0.00;;;12.20;99.90;;;;;;5018102;28;20114;-72
2023/08/09 05:17:20;;;;;;;0.00;0.00;;;12.30;99.90;;;;;;5037974;28;20041;-71
2023/08/09 05:19:45;;;;;;;0.00;0.00;;;12.30;99.90;;;;;;5034857;28;20041;-71
2023/08/09 05:22:11;;;;;;;0.32;0.25;;;12.40;99.90;;;;;;5037509;28;20050;-71
2023/08/09 05:24:37;;;;;;;0.00;0.00;;;12.30;99.90;;;;;;5036915;28;20463;-71
2023/08/09 05:27:02;;;;;;;0.03;0.03;;;12.40;99.90;;;;;;5039860;28;20061;-72
2023/08/09 05:29:28;;;;;;;0.00;0.00;;;12.40;99.90;;;;;;5036929;28;20136;-71
2023/08/09 05:31:53;;;;;;;0.00;0.00;;;12.50;99.90;;;;;;5046821;28;20045;-71
2023/08/09 05:34:19;;;;;;;0.00;0.00;;;12.60;99.90;;;;;;5043590;28;20040;-71
2023/08/09 05:36:45;;;;;;;0.10;0.10;;;12.50;99.90;;;;;;5041948;28;20842;-71
2023/08/09 05:39:12;;;;;;;0.10;0.10;;;12.60;99.90;;;;;;5030451;28;20041;-72
2023/08/09 05:41:38;;;;;;;0.05;0.05;;;12.70;99.90;;;;;;5027022;28;20055;-71
2023/08/09 05:44:04;;;;;;;0.10;0.10;;;12.80;99.90;;;;;;5037286;28;20049;-72
2023/08/09 05:46:30;;;;;;;0.00;0.00;;;12.80;99.90;;;;;;5027398;28;20094;-72
2023/08/09 05:48:56;;;;;;;0.03;0.03;;;12.90;99.90;;;;;;5038002;28;20068;-72
2023/08/09 05:51:22;;;;;;;0.00;0.00;;;12.90;99.90;;;;;;5043305;28;20052;-72
2023/08/09 05:53:48;;;;;;;0.10;0.10;;;13.00;99.90;;;;;;5048270;28;20052;-72
2023/08/09 05:56:14;;;;;;;0.00;0.00;;;13.10;99.90;;;;;;5024044;28;20064;-72
2023/08/09 05:58:39;;;;;;;0.00;0.00;;;13.20;99.90;;;;;;5017551;28;20052;-72
2023/08/09 06:01:07;;;;;;;0.00;0.00;;;13.20;99.90;;;;;;5038402;28;20044;-72
2023/08/09 06:03:39;;;;;;;0.00;0.00;;;13.30;99.90;;;;;;5047020;28;20041;-72
2023/08/09 06:06:08;;;;;;;0.00;0.00;;;13.40;99.90;;;;;;5040909;28;20053;-72
2023/08/09 06:08:35;;;;;;;0.25;0.25;;;13.40;99.90;;;;;;5024473;28;20041;-72
2023/08/09 06:11:01;;;;;;;0.10;0.10;;;13.50;99.90;;;;;;5031787;28;20515;-72
2023/08/09 06:13:27;;;;;;;0.00;0.00;;;13.60;99.90;;;;;;5035669;28;20091;-72
2023/08/09 06:15:52;;;;;;;0.43;0.43;;;13.70;99.90;;;;;;5036109;28;20045;-72
2023/08/09 06:18:18;;;;;;;0.00;0.00;;;13.70;99.90;;;;;;5039071;28;20048;-72
2023/08/09 06:20:44;;;;;;;0.00;0.00;;;13.80;99.90;;;;;;5027535;28;20759;-72
2023/08/09 06:23:10;;;;;;;0.00;0.00;;;13.90;99.90;;;;;;5039211;28;20488;-72
2023/08/09 06:25:36;;;;;;;0.00;0.00;;;14.00;99.90;;;;;;5023381;28;20123;-72
2023/08/09 06:28:02;;;;;;;0.00;0.00;;;14.10;99.90;;;;;;5022328;28;20511;-72
2023/08/09 06:30:28;;;;;;;0.00;0.00;;;14.20;99.90;;;;;;5019632;28;20482;-72
2023/08/09 06:32:54;;;;;;;0.00;0.00;;;14.30;99.90;;;;;;5043676;28;20043;-72
2023/08/09 06:35:20;;;;;;;0.00;0.00;;;14.40;99.90;;;;;;5036601;28;20469;-73
2023/08/09 06:37:50;;;;;;;0.25;0.25;;;14.40;99.90;;;;;;5027470;28;20096;-73
2023/08/09 06:40:16;;;;;;;0.00;0.00;;;14.60;99.90;;;;;;5037585;28;20049;-73
2023/08/09 06:42:43;;;;;;;0.00;0.00;;;14.70;99.90;;;;;;5037784;28;20477;-73
2023/08/09 06:45:09;;;;;;;0.00;0.00;;;14.70;99.90;;;;;;5035071;28;20057;-73
2023/08/09 06:47:35;;;;;;;0.00;0.00;;;14.80;99.90;;;;;;5031654;28;20119;-73
2023/08/09 06:50:04;;;;;;;0.00;0.00;;;14.90;99.90;;;;;;5046619;28;20499;-72
2023/08/09 06:52:31;;;;;;;0.00;0.00;;;15.00;99.90;;;;;;5044385;28;20072;-73
2023/08/09 06:54:56;;;;;;;0.10;0.10;;;15.20;99.90;;;;;;5025552;28;20045;-73
2023/08/09 06:57:22;;;;;;;0.00;0.00;;;15.30;99.90;;;;;;5044922;28;20056;-73
2023/08/09 06:59:48;;;;;;;0.25;0.25;;;15.40;99.90;;;;;;5032860;28;20030;-72
2023/08/09 07:02:14;;;;;;;0.00;0.00;;;15.50;99.90;;;;;;5040965;28;20040;-74
2023/08/09 07:04:40;;;;;;;0.00;0.00;;;15.60;99.90;;;;;;5024951;28;20045;-74
2023/08/09 07:07:05;;;;;;;0.25;0.25;;;15.70;99.90;;;;;;5039985;28;20042;-74
2023/08/09 07:09:31;;;;;;;1.13;0.30;;;15.70;99.90;;;;;;5039096;28;20063;-73
2023/08/09 07:11:57;;;;;;;0.32;0.32;;;15.70;99.90;;;;;;5027625;28;20132;-74
2023/08/09 07:14:23;;;;;;;1.17;0.40;;;15.90;99.90;;;;;;5040206;28;20042;-74
2023/08/09 07:16:49;;;;;;;0.00;0.00;;;15.90;99.90;;;;;;5045698;28;20441;-74
2023/08/09 07:19:15;;;;;;;0.00;0.00;;;15.90;99.90;;;;;;5040225;28;20044;-74
2023/08/09 07:21:41;;;;;;;0.00;0.00;;;15.90;99.90;;;;;;5021113;28;20070;-74
2023/08/09 07:24:06;;;;;;;0.00;0.00;;;16.00;99.90;;;;;;5042710;28;20047;-75
2023/08/09 07:26:32;;;;;;;0.00;0.00;;;16.10;99.90;;;;;;5026192;28;20467;-75
2023/08/09 07:28:59;;;;;;;0.00;0.00;;;16.10;99.90;;;;;;5031673;28;20497;-74
2023/08/09 07:31:25;;;;;;;0.10;0.10;;;16.20;99.90;;;;;;5026265;28;20045;-71
2023/08/09 07:33:51;;;;;;;0.00;0.00;;;16.30;99.90;;;;;;5048931;28;20041;-74
2023/08/09 07:36:17;;;;;;;0.00;0.00;;;16.40;99.90;;;;;;5016798;28;20468;-73
2023/08/09 07:38:43;;;;;;;0.20;0.20;;;16.50;99.90;;;;;;5048021;28;20194;-74
2023/08/09 07:41:10;;;;;;;0.05;0.05;;;16.40;99.90;;;;;;5033311;28;20602;-74
2023/08/09 07:43:35;;;;;;;0.05;0.05;;;16.50;99.90;;;;;;5038750;28;20045;-73
2023/08/09 07:46:05;;;;;;;0.05;0.05;;;16.50;99.90;;;;;;5049112;28;20037;-73
2023/08/09 07:48:32;;;;;;;0.10;0.10;;;16.60;99.90;;;;;;5037738;28;20136;-73
2023/08/09 07:50:58;;;;;;;0.00;0.00;;;16.60;99.90;;;;;;5045230;28;20053;-73
2023/08/09 07:53:24;;;;;;;0.08;0.08;;;16.70;99.90;;;;;;5044984;28;20091;-74
2023/08/09 07:55:50;;;;;;;0.00;0.00;;;16.80;99.90;;;;;;5035939;28;20051;-71
2023/08/09 07:58:16;;;;;;;0.08;0.08;;;16.80;99.90;;;;;;5041734;28;20144;-71
2023/08/09 08:00:42;;;;;;;0.00;0.00;;;16.90;99.90;;;;;;5040071;28;20167;-71
2023/08/09 08:03:09;;;;;;;0.00;0.00;;;16.90;99.90;;;;;;5041156;28;20141;-71
2023/08/09 08:05:36;;;;;;;0.10;0.10;;;17.00;99.90;;;;;;5027312;28;20049;-71
2023/08/09 08:08:02;;;;;;;0.00;0.00;;;17.10;99.90;;;;;;5028780;28;20037;-72
2023/08/09 08:10:28;;;;;;;0.03;0.03;;;17.10;99.90;;;;;;5038060;28;20033;-72
2023/08/09 08:12:54;;;;;;;0.00;0.00;;;17.20;99.90;;;;;;5050412;28;20043;-71
2023/08/09 08:15:20;;;;;;;0.08;0.08;;;17.20;99.90;;;;;;5039238;28;20045;-71
2023/08/09 08:17:46;;;;;;;0.15;0.15;;;17.20;99.90;;;;;;5038968;28;20131;-72
2023/08/09 08:20:15;;;;;;;0.32;0.32;;;17.20;99.90;;;;;;5016306;28;20431;-71
2023/08/09 08:22:46;;;;;;;0.10;0.10;;;17.30;99.90;;;;;;5049521;28;20037;-71
2023/08/09 08:25:13;;;;;;;0.00;0.00;;;17.30;99.90;;;;;;5042142;28;20099;-71
2023/08/09 08:27:42;;;;;;;0.10;0.10;;;17.40;99.90;;;;;;5045855;28;20068;-71
2023/08/09 08:30:09;;;;;;;0.00;0.00;;;17.40;99.90;;;;;;5025937;28;20044;-70
2023/08/09 08:32:35;;;;;;;0.00;0.00;;;17.50;99.90;;;;;;5041652;28;20034;-71
2023/08/09 08:35:02;;;;;;;0.00;0.00;;;17.50;99.90;;;;;;5039531;28;20048;-71
2023/08/09 08:37:28;;;;;;;0.00;0.00;;;17.60;99.90;;;;;;5045692;28;20551;-72
2023/08/09 08:39:54;;;;;;;0.00;0.00;;;17.60;99.90;;;;;;5041332;28;20091;-71
2023/08/09 08:42:20;;;;;;;0.00;0.00;;;17.70;99.90;;;;;;5031950;28;20096;-71
2023/08/09 08:44:46;;;;;;;0.05;0.05;;;17.70;99.90;;;;;;5044428;28;20068;-70
2023/08/09 08:47:12;;;;;;;0.00;0.00;;;17.70;99.90;;;;;;5043763;28;20045;-71
2023/08/09 08:49:44;;;;;;;0.05;0.05;;;17.70;99.90;;;;;;5030880;28;20441;-70
2023/08/09 08:52:12;;;;;;;0.00;0.00;;;17.80;99.90;;;;;;5040333;28;20108;-70
2023/08/09 08:54:38;;;;;;;0.28;0.28;;;17.90;99.90;;;;;;5050647;28;20386;-72
2023/08/09 08:57:04;;;;;;;0.00;0.00;;;17.90;99.90;;;;;;5049613;28;20865;-72
2023/08/09 08:59:30;;;;;;;0.00;0.00;;;17.90;99.90;;;;;;5040623;28;20094;-71
2023/08/09 09:01:57;;;;;;;0.00;0.00;;;18.00;99.90;;;;;;5044798;28;20397;-71
2023/08/09 09:04:23;;;;;;;0.60;0.52;;;18.10;99.90;;;;;;5020326;28;20056;-72
2023/08/09 09:06:50;;;;;;;0.00;0.00;;;18.20;99.90;;;;;;5041984;28;20099;-71
2023/08/09 09:09:15;;;;;;;0.00;0.00;;;18.20;99.90;;;;;;5044091;28;20042;-72
2023/08/09 09:11:43;;;;;;;0.00;0.00;;;18.30;99.90;;;;;;5042393;28;20515;-71
2023/08/09 09:14:15;;;;;;;0.00;0.00;;;18.40;99.90;;;;;;5041028;28;20155;-71
2023/08/09 09:16:42;;;;;;;0.10;0.10;;;18.40;99.90;;;;;;5041840;28;20048;-71
2023/08/09 09:19:08;;;;;;;0.00;0.00;;;18.40;99.90;;;;;;5033355;28;20052;-71
2023/08/09 09:21:36;;;;;;;0.70;0.55;;;18.40;99.90;;;;;;5043954;28;20045;-72
2023/08/09 09:24:05;;;;;;;0.05;0.05;;;18.60;99.90;;;;;;5042194;28;20032;-72
2023/08/09 09:26:31;;;;;;;0.00;0.00;;;18.60;99.90;;;;;;5036869;28;20059;-71
2023/08/09 09:28:57;;;;;;;0.22;0.22;;;18.60;99.90;;;;;;5039791;28;20056;-72
2023/08/09 09:31:38;;;;;;;0.10;0.10;;;19.00;99.90;;;;;;5035217;28;20760;-71
2023/08/09 09:34:06;;;;;;;0.10;0.10;;;19.10;99.90;;;;;;5034540;28;20048;-71
2023/08/09 09:36:32;;;;;;;0.00;0.00;;;19.00;99.90;;;;;;5022958;28;20170;-70
2023/08/09 09:38:59;;;;;;;0.00;0.00;;;19.00;99.90;;;;;;5015238;28;20086;-73
2023/08/09 09:41:25;;;;;;;0.00;0.00;;;19.20;99.90;;;;;;5041985;28;20045;-71
2023/08/09 09:43:51;;;;;;;0.10;0.10;;;19.40;99.90;;;;;;5043147;28;20545;-71
2023/08/09 09:46:20;;;;;;;0.08;0.08;;;19.30;99.90;;;;;;5042394;28;20068;-71
2023/08/09 09:48:59;;;;;;;0.10;0.10;;;19.30;99.90;;;;;;5015965;28;20034;-70
2023/08/09 09:51:25;;;;;;;0.00;0.00;;;19.30;99.90;;;;;;5014573;28;20446;-71
2023/08/09 09:53:51;;;;;;;0.10;0.10;;;19.30;99.90;;;;;;5045145;28;20045;-71
2023/08/09 09:56:17;;;;;;;0.73;0.73;;;19.40;99.90;;;;;;5039910;28;20068;-72
2023/08/09 09:58:43;;;;;;;0.00;0.00;;;19.60;99.90;;;;;;5040147;28;20032;-71
2023/08/09 10:01:12;;;;;;;0.00;0.00;;;19.70;99.90;;;;;;5041390;28;20045;-72
2023/08/09 10:03:42;;;;;;;0.00;0.00;;;19.70;99.90;;;;;;5039678;28;20048;-71
2023/08/09 10:06:13;;;;;;;0.00;0.00;;;19.90;99.90;;;;;;5046277;28;20516;-72
2023/08/09 10:08:40;;;;;;;0.00;0.00;;;19.90;99.90;;;;;;5032471;28;20051;-72
2023/08/09 10:11:08;;;;;;;0.00;0.00;;;19.90;99.90;;;;;;5037868;28;20240;-72
2023/08/09 10:13:35;;;;;;;0.00;0.00;;;19.90;99.90;;;;;;5030701;28;20439;-72
2023/08/09 10:16:05;;;;;;;0.32;0.13;;;19.90;99.90;;;;;;5036522;28;20124;-71
2023/08/09 10:19:03;;;;;;;0.00;0.00;;;19.80;99.90;;;;;;5037619;28;20496;-73
2023/08/09 10:21:30;;;;;;;0.05;0.05;;;19.80;99.90;;;;;;5034430;28;20050;-72
2023/08/09 10:24:06;;;;;;;0.00;0.00;;;19.60;99.90;;;;;;5041128;28;20091;-73
2023/08/09 10:26:32;;;;;;;0.00;0.00;;;19.50;99.90;;;;;;5037638;28;20033;-72
2023/08/09 10:29:08;;;;;;;0.00;0.00;;;19.40;99.90;;;;;;5043638;28;20119;-72
2023/08/09 10:32:00;;;;;;;1.13;0.30;;;19.40;99.90;;;;;;5041805;28;20143;-72
2023/08/09 10:34:31;;;;;;;0.40;0.20;;;19.50;99.90;;;;;;5046934;28;20488;-73
2023/08/09 10:36:58;;;;;;;0.00;0.00;;;19.40;99.90;;;;;;5020358;28;20178;-72
2023/08/09 10:39:24;;;;;;;0.00;0.00;;;19.50;99.90;;;;;;5038652;28;20489;-74
2023/08/09 10:41:54;;;;;;;0.00;0.00;;;19.70;99.90;;;;;;5037881;28;20057;-73
2023/08/09 10:44:41;;;;;;;0.00;0.00;;;19.70;99.90;;;;;;5017755;28;20054;-73
2023/08/09 10:47:12;;;;;;;0.45;0.30;;;19.80;99.90;;;;;;5047233;28;20110;-73
2023/08/09 10:49:53;;;;;;;0.00;0.00;;;19.70;99.90;;;;;;5040675;28;20056;-72
2023/08/09 10:52:37;;;;;;;0.00;0.00;;;19.60;99.90;;;;;;5041101;28;20048;-73
2023/08/09 10:55:18;;;;;;;0.00;0.00;;;19.50;99.90;;;;;;5044900;28;20049;-73
2023/08/09 10:57:44;;;;;;;0.00;0.00;;;19.40;99.90;;;;;;5036415;28;20049;-73
2023/08/09 11:00:13;;;;;;;0.00;0.00;;;19.30;99.90;;;;;;5044712;28;20052;-73
2023/08/09 11:02:50;;;;;;;0.00;0.00;;;19.40;99.90;;;;;;5038579;28;20050;-73
2023/08/09 11:05:17;;;;;;;0.10;0.10;;;19.40;99.90;;;;;;5024811;28;20128;-74
2023/08/09 11:07:54;;;;;;;0.00;0.00;;;19.60;99.90;;;;;;5044466;28;20044;-73
2023/08/09 11:10:34;;;;;;;0.20;0.20;;;19.70;99.90;;;;;;5024171;28;20055;-73
2023/08/09 11:13:04;;;;;;;0.00;0.00;;;19.70;99.90;;;;;;5044762;28;20041;-73
2023/08/09 11:15:32;;;;;;;2.05;0.50;;;19.60;99.90;;;;;;5039510;28;20041;-73
2023/08/09 11:17:57;;;;;;;0.00;0.00;;;19.70;99.90;;;;;;5039132;28;20087;-73
2023/08/09 11:20:23;;;;;;;0.00;0.00;;;20.30;99.90;;;;;;5046666;28;20061;-73
2023/08/09 11:22:54;;;;;;;0.00;0.00;;;20.60;99.90;;;;;;5042489;28;20048;-72
2023/08/09 11:25:20;;;;;;;1.23;0.38;;;21.10;99.90;;;;;;5040003;28;20060;-73
2023/08/09 11:27:45;;;;;;;0.00;0.00;;;20.90;99.90;;;;;;5031105;28;20408;-73
2023/08/09 11:30:12;;;;;;;0.00;0.00;;;21.00;99.90;;;;;;5039476;28;20045;-73
2023/08/09 11:32:38;;;;;;;0.00;0.00;;;21.20;99.90;;;;;;5048692;28;20041;-73
2023/08/09 11:35:05;;;;;;;0.13;0.13;;;20.90;99.90;;;;;;5036592;28;20076;-73
2023/08/09 11:37:31;;;;;;;0.10;0.10;;;21.30;99.90;;;;;;5040424;28;20044;-73
2023/08/09 11:39:56;;;;;;;2.28;1.45;;;21.40;99.90;;;;;;5038260;28;20061;-73
2023/08/09 11:42:22;;;;;;;0.10;0.10;;;21.40;99.90;;;;;;5044049;28;20044;-72
2023/08/09 11:44:48;;;;;;;0.00;0.00;;;21.40;99.90;;;;;;5044485;28;20037;-72
2023/08/09 11:47:13;;;;;;;0.08;0.08;;;21.20;99.90;;;;;;5037896;28;20412;-73
2023/08/09 11:49:40;;;;;;;0.00;0.00;;;21.00;99.90;;;;;;5029970;28;20703;-73
2023/08/09 11:52:06;;;;;;;0.00;0.00;;;20.70;99.90;;;;;;5024113;28;20057;-72
2023/08/09 11:54:32;;;;;;;0.00;0.00;;;21.10;99.90;;;;;;5020881;28;20048;-73
2023/08/09 11:57:01;;;;;;;0.20;0.20;;;21.60;99.90;;;;;;5031143;28;20130;-74
2023/08/09 11:59:26;;;;;;;3.60;1.33;;;21.40;99.90;;;;;;5035004;28;20049;-74
2023/08/09 12:01:55;;;;;;;0.13;0.13;;;21.90;99.90;;;;;;5020639;28;20101;-73
2023/08/09 12:04:23;;;;;;;0.00;0.00;;;22.40;99.90;;;;;;5045667;28;20044;-73
2023/08/09 12:06:54;;;;;;;0.20;0.20;;;22.10;99.90;;;;;;5039028;28;20053;-74
2023/08/09 12:09:31;;;;;;;0.00;0.00;;;22.10;99.90;;;;;;5048965;28;20064;-74
2023/08/09 12:12:13;;;;;;;0.00;0.00;;;22.00;99.90;;;;;;5051104;28;20040;-75
2023/08/09 12:14:43;;;;;;;0.00;0.00;;;22.20;99.90;;;;;;5034365;28;20054;-74
2023/08/09 12:17:20;;;;;;;0.00;0.00;;;22.00;99.90;;;;;;5041850;28;20045;-75
2023/08/09 12:19:46;;;;;;;0.17;0.17;;;21.60;99.90;;;;;;5037447;28;20041;-74
2023/08/09 12:22:12;;;;;;;0.00;0.00;;;22.10;99.90;;;;;;5046252;28;20181;-74
2023/08/09 12:24:37;;;;;;;3.85;1.92;;;22.10;99.90;;;;;;5038784;28;20079;-74
2023/08/09 12:27:04;;;;;;;0.00;0.00;;;21.70;99.90;;;;;;5039145;28;20041;-74
2023/08/09 12:29:30;;;;;;;0.00;0.00;;;21.90;99.90;;;;;;5043568;28;20041;-74
2023/08/09 12:31:56;;;;;;;0.00;0.00;;;22.40;99.90;;;;;;5040667;28;20052;-74
2023/08/09 12:34:22;;;;;;;0.00;0.00;;;22.80;99.90;;;;;;5037639;28;20087;-74
2023/08/09 12:36:48;;;;;;;0.03;0.03;;;22.70;99.90;;;;;;5040260;28;20037;-73
2023/08/09 12:39:14;;;;;;;0.00;0.00;;;23.20;99.90;;;;;;5042403;28;20036;-73
2023/08/09 12:41:43;;;;;;;0.00;0.00;;;23.50;99.90;;;;;;5037033;28;20064;-73
2023/08/09 12:44:09;;;;;;;0.55;0.43;;;23.80;99.90;;;;;;5045205;28;20051;-73
2023/08/09 12:46:39;;;;;;;0.10;0.10;;;24.10;99.90;;;;;;5036965;28;20045;-72
2023/08/09 12:49:06;;;;;;;0.00;0.00;;;23.30;99.90;;;;;;5039680;28;20046;-73